Time;durP1;ratioP1;P1;durP2;ratioP2;P2;SDS_P1;SDS_P2;PMS_P1;PMS_P2;Temp;Humidity;BMP_temperature;BMP_pressure;BME280_temperature;BME280_humidity;BME280_pressure;Samples;Min_cycle;Max_cycle;Signal;HPM_P1;HPM_P2
2021/04/24 00:01:46;;;;;;;10.93;2.28;;;32.70;22.80;;;;;;5031605;28;20153;-61
2021/04/24 00:04:12;;;;;;;19.15;2.63;;;32.80;22.80;;;;;;5030709;28;20075;-62
2021/04/24 00:06:39;;;;;;;10.73;2.30;;;32.90;22.60;;;;;;5030013;28;20077;-61
2021/04/24 00:09:07;;;;;;;15.30;2.33;;;32.90;22.60;;;;;;5033394;28;20641;-61
2021/04/24 00:11:34;;;;;;;23.85;2.88;;;33.00;22.10;;;;;;5031603;28;20093;-62
2021/04/24 00:14:01;;;;;;;14.40;2.40;;;32.90;21.70;;;;;;5031534;28;20128;-61
2021/04/24 00:16:29;;;;;;;14.43;2.20;;;32.60;21.80;;;;;;5030399;28;20086;-61
2021/04/24 00:18:55;;;;;;;16.50;2.75;;;32.40;22.20;;;;;;5032724;28;20220;-60
2021/04/24 00:21:22;;;;;;;12.30;2.10;;;32.30;22.40;;;;;;5028873;28;20086;-60
2021/04/24 00:23:48;;;;;;;11.98;2.17;;;32.40;22.00;;;;;;5032274;28;20074;-61
2021/04/24 00:26:15;;;;;;;11.48;2.40;;;32.30;21.70;;;;;;5032403;28;20116;-60
2021/04/24 00:28:41;;;;;;;14.02;2.38;;;32.30;21.50;;;;;;5032168;28;20077;-61
2021/04/24 00:31:08;;;;;;;12.50;2.35;;;32.20;21.30;;;;;;5031670;28;20089;-61
2021/04/24 00:33:35;;;;;;;12.18;2.28;;;32.20;21.50;;;;;;5032051;28;20514;-61
2021/04/24 00:36:01;;;;;;;16.00;2.33;;;32.20;21.50;;;;;;5030640;28;20106;-61
2021/04/24 00:38:28;;;;;;;12.60;2.83;;;32.00;21.30;;;;;;5032936;28;20082;-61
2021/04/24 00:40:55;;;;;;;17.45;2.85;;;32.00;21.30;;;;;;5029819;28;20131;-60
2021/04/24 00:43:22;;;;;;;8.23;2.15;;;32.00;21.30;;;;;;5033320;28;20113;-60
2021/04/24 00:45:48;;;;;;;9.65;1.90;;;32.00;21.10;;;;;;5049176;28;20547;-61
2021/04/24 00:48:16;;;;;;;10.38;2.28;;;32.00;20.80;;;;;;5033916;28;20077;-60
2021/04/24 00:50:43;;;;;;;17.33;2.85;;;32.00;20.80;;;;;;5033846;28;20173;-62
2021/04/24 00:53:12;;;;;;;20.35;2.83;;;31.90;20.40;;;;;;5032822;28;20531;-57
2021/04/24 00:55:40;;;;;;;14.10;2.58;;;31.80;20.30;;;;;;5030203;28;20131;-63
2021/04/24 00:58:11;;;;;;;13.10;2.50;;;31.80;20.80;;;;;;5029631;28;20153;-62
2021/04/24 01:00:38;;;;;;;6.82;2.20;;;31.80;20.60;;;;;;5031499;28;20141;-60
2021/04/24 01:03:05;;;;;;;18.35;2.95;;;31.80;20.70;;;;;;5030391;28;20101;-63
2021/04/24 01:05:36;;;;;;;9.35;2.33;;;31.70;20.40;;;;;;5030551;28;20204;-62
2021/04/24 01:08:04;;;;;;;11.00;2.05;;;31.50;20.00;;;;;;5031140;28;20085;-61
2021/04/24 01:10:36;;;;;;;18.45;3.03;;;31.40;20.10;;;;;;5032233;28;20088;-63
2021/04/24 01:13:04;;;;;;;26.40;3.70;;;31.30;20.00;;;;;;5032139;28;20085;-62
2021/04/24 01:15:31;;;;;;;18.45;2.90;;;31.20;20.00;;;;;;5030931;28;20110;-61
2021/04/24 01:17:58;;;;;;;14.30;2.88;;;31.10;19.90;;;;;;5032394;28;20169;-60
2021/04/24 01:20:25;;;;;;;12.18;2.80;;;31.00;20.30;;;;;;5030101;28;20090;-60
2021/04/24 01:22:53;;;;;;;20.63;2.65;;;31.00;20.60;;;;;;5030764;28;20113;-60
2021/04/24 01:25:25;;;;;;;18.40;3.03;;;30.90;20.80;;;;;;5030976;28;20078;-59
2021/04/24 01:27:57;;;;;;;14.25;3.90;;;30.70;21.00;;;;;;5030523;28;20097;-61
2021/04/24 01:30:30;;;;;;;24.00;3.58;;;30.70;21.50;;;;;;5029688;28;20526;-61
2021/04/24 01:32:57;;;;;;;25.30;3.85;;;30.50;22.10;;;;;;5029168;28;20066;-60
2021/04/24 01:35:28;;;;;;;20.73;3.97;;;30.40;22.50;;;;;;5031045;28;20105;-61
2021/04/24 01:37:55;;;;;;;21.02;5.53;;;30.40;23.50;;;;;;5027921;28;20106;-61
2021/04/24 01:40:23;;;;;;;23.80;4.90;;;30.20;24.00;;;;;;5027417;28;20086;-60
2021/04/24 01:42:50;;;;;;;26.63;3.58;;;30.00;24.20;;;;;;5030384;28;20114;-60
2021/04/24 01:45:18;;;;;;;25.48;4.00;;;29.90;24.20;;;;;;5028025;28;20109;-60
2021/04/24 01:47:58;;;;;;;18.17;2.92;;;29.70;25.10;;;;;;5110347;27;20513;-58
2021/04/24 01:50:30;;;;;;;17.05;2.60;;;29.50;25.70;;;;;;5108510;28;20068;-61
2021/04/24 01:52:59;;;;;;;18.02;2.95;;;29.40;25.90;;;;;;5108946;28;20086;-61
2021/04/24 01:55:29;;;;;;;26.38;3.28;;;29.30;26.00;;;;;;5108589;28;20429;-61
2021/04/24 01:57:57;;;;;;;30.33;3.05;;;29.10;26.30;;;;;;5107846;28;20073;-60
2021/04/24 02:00:37;;;;;;;20.27;3.10;;;29.00;26.30;;;;;;5112245;28;20069;-60
2021/04/24 02:03:08;;;;;;;36.72;3.45;;;28.90;26.40;;;;;;5103111;27;20137;-60
2021/04/24 02:05:35;;;;;;;25.50;2.97;;;28.70;26.40;;;;;;5106754;28;20068;-60
2021/04/24 02:08:08;;;;;;;32.58;3.35;;;28.60;26.90;;;;;;5110760;28;20084;-61
2021/04/24 02:10:36;;;;;;;32.33;3.80;;;28.50;27.60;;;;;;5110665;28;20528;-60
2021/04/24 02:13:09;;;;;;;32.28;3.47;;;28.40;28.00;;;;;;5106056;28;20785;-60
2021/04/24 02:15:36;;;;;;;22.33;2.88;;;28.30;28.40;;;;;;5109556;28;20068;-60
2021/04/24 02:18:04;;;;;;;19.75;3.13;;;28.20;28.80;;;;;;5108362;28;20117;-59
2021/04/24 02:20:32;;;;;;;32.00;3.13;;;28.00;28.90;;;;;;5106775;28;20155;-61
2021/04/24 02:22:59;;;;;;;19.02;3.10;;;27.90;29.20;;;;;;5112706;28;20088;-60
2021/04/24 02:25:26;;;;;;;23.02;2.90;;;27.70;29.40;;;;;;5109893;28;20102;-59
2021/04/24 02:27:53;;;;;;;15.48;2.40;;;27.70;29.60;;;;;;5106052;28;20444;-61
2021/04/24 02:30:21;;;;;;;11.95;3.20;;;27.60;29.60;;;;;;5111230;28;20551;-61
2021/04/24 02:32:49;;;;;;;24.08;2.90;;;27.50;29.50;;;;;;5105943;28;20513;-61
2021/04/24 02:35:27;;;;;;;18.15;3.75;;;27.50;29.60;;;;;;5108861;28;20133;-60
2021/04/24 02:37:54;;;;;;;16.23;2.75;;;27.40;30.00;;;;;;5116164;28;20183;-62
2021/04/24 02:40:23;;;;;;;21.15;2.92;;;27.30;30.40;;;;;;5110728;28;20080;-62
2021/04/24 02:42:50;;;;;;;21.38;3.38;;;27.20;31.00;;;;;;5096776;28;20074;-63
2021/04/24 02:45:17;;;;;;;19.73;3.38;;;27.10;31.40;;;;;;5112426;28;20072;-61
2021/04/24 02:47:45;;;;;;;19.48;3.33;;;27.00;32.10;;;;;;5107195;28;20158;-61
2021/04/24 02:50:16;;;;;;;19.52;4.28;;;26.90;33.10;;;;;;5107786;28;20072;-60
2021/04/24 02:52:44;;;;;;;17.40;3.28;;;26.90;33.50;;;;;;5111609;28;20080;-61
2021/04/24 02:55:12;;;;;;;23.13;3.17;;;26.80;34.20;;;;;;5105470;28;20541;-60
2021/04/24 02:57:38;;;;;;;16.38;2.90;;;26.70;35.10;;;;;;5101418;28;20077;-60
2021/04/24 03:00:10;;;;;;;13.57;2.88;;;26.70;35.50;;;;;;5095630;28;20073;-63
2021/04/24 03:02:37;;;;;;;24.58;4.03;;;26.50;36.10;;;;;;5096030;28;20156;-63
2021/04/24 03:05:09;;;;;;;11.50;3.13;;;26.50;36.50;;;;;;5095463;28;20091;-61
2021/04/24 03:07:36;;;;;;;18.35;3.88;;;26.50;36.90;;;;;;5097370;28;20177;-63
2021/04/24 03:10:03;;;;;;;19.15;4.45;;;26.40;37.20;;;;;;5092433;28;20077;-62
2021/04/24 03:12:30;;;;;;;18.40;4.43;;;26.30;37.10;;;;;;5095013;28;20091;-61
2021/04/24 03:14:57;;;;;;;22.05;4.47;;;26.30;36.90;;;;;;5093331;28;20068;-60
2021/04/24 03:17:23;;;;;;;28.17;4.07;;;26.10;36.80;;;;;;5093373;28;20553;-61
2021/04/24 03:19:50;;;;;;;22.40;3.97;;;26.10;36.60;;;;;;5093845;28;20077;-59
2021/04/24 03:22:16;;;;;;;28.17;4.20;;;26.00;36.50;;;;;;5091043;28;20607;-60
2021/04/24 03:24:43;;;;;;;31.05;4.60;;;26.00;36.30;;;;;;5067991;28;20068;-61
2021/04/24 03:27:10;;;;;;;38.10;4.28;;;25.90;36.50;;;;;;5075771;28;20096;-61
2021/04/24 03:29:36;;;;;;;29.77;4.78;;;25.80;36.60;;;;;;5091686;28;20813;-60
2021/04/24 03:32:03;;;;;;;34.35;4.00;;;25.80;36.80;;;;;;5090996;28;20083;-60
2021/04/24 03:34:30;;;;;;;27.60;4.40;;;25.70;37.00;;;;;;5092018;28;20075;-62
2021/04/24 03:36:59;;;;;;;24.88;5.13;;;25.70;37.00;;;;;;5095262;28;20084;-61
2021/04/24 03:39:26;;;;;;;30.88;5.70;;;25.60;37.00;;;;;;5093212;28;20077;-61
2021/04/24 03:41:53;;;;;;;29.13;7.00;;;25.50;37.30;;;;;;5096211;28;20075;-64
2021/04/24 03:44:20;;;;;;;26.85;6.60;;;25.40;37.50;;;;;;5099867;28;20566;-61
2021/04/24 03:46:47;;;;;;;35.85;6.45;;;25.40;37.60;;;;;;5095186;28;20162;-63
2021/04/24 03:49:13;;;;;;;28.10;6.43;;;25.40;37.90;;;;;;5092573;28;20076;-64
2021/04/24 03:51:40;;;;;;;22.88;5.68;;;25.30;38.00;;;;;;5099008;28;20084;-62
2021/04/24 03:54:07;;;;;;;26.27;5.93;;;25.20;38.00;;;;;;5077977;28;20089;-61
2021/04/24 03:56:34;;;;;;;28.98;5.63;;;25.10;37.70;;;;;;5092105;28;20418;-60
2021/04/24 03:59:01;;;;;;;22.00;3.92;;;25.00;37.90;;;;;;5082393;28;21896;-61
2021/04/24 04:01:28;;;;;;;17.73;4.07;;;25.10;37.60;;;;;;5092896;28;20068;-61
2021/04/24 04:03:55;;;;;;;15.23;3.28;;;25.00;37.30;;;;;;5092541;28;20127;-61
2021/04/24 04:06:21;;;;;;;10.70;2.80;;;25.00;37.60;;;;;;5097032;28;20119;-61
2021/04/24 04:08:48;;;;;;;15.35;3.20;;;24.90;37.30;;;;;;5094215;28;20100;-62
2021/04/24 04:11:14;;;;;;;16.50;2.72;;;24.90;37.80;;;;;;5098525;28;20072;-59
2021/04/24 04:13:41;;;;;;;15.18;2.97;;;24.80;38.40;;;;;;5098030;28;20064;-60
2021/04/24 04:16:07;;;;;;;16.95;2.72;;;24.80;37.90;;;;;;5097058;28;20095;-62
2021/04/24 04:18:37;;;;;;;15.18;4.50;;;24.70;37.80;;;;;;5079328;28;20072;-60
2021/04/24 04:21:05;;;;;;;20.23;6.47;;;24.70;37.70;;;;;;5092877;28;20069;-61
2021/04/24 04:23:32;;;;;;;16.08;4.35;;;24.60;38.10;;;;;;5096552;28;20076;-59
2021/04/24 04:25:59;;;;;;;22.90;3.95;;;24.50;38.30;;;;;;5096551;28;20135;-61
2021/04/24 04:28:26;;;;;;;15.30;5.72;;;24.60;38.90;;;;;;5084090;28;20076;-60
2021/04/24 04:30:55;;;;;;;20.20;5.93;;;24.60;38.50;;;;;;5092863;28;20130;-62
2021/04/24 04:33:22;;;;;;;30.83;7.90;;;24.50;38.60;;;;;;5093665;28;20420;-59
2021/04/24 04:35:50;;;;;;;22.52;8.13;;;24.40;38.60;;;;;;5097072;28;20068;-61
2021/04/24 04:38:17;;;;;;;29.20;6.30;;;24.30;38.90;;;;;;5098486;28;20080;-62
2021/04/24 04:40:45;;;;;;;25.33;6.60;;;24.30;39.10;;;;;;5096649;28;20117;-62
2021/04/24 04:43:13;;;;;;;24.67;5.78;;;24.10;39.30;;;;;;5098550;28;20068;-58
2021/04/24 04:45:41;;;;;;;26.67;6.95;;;24.10;39.50;;;;;;5095440;28;20118;-61
2021/04/24 04:48:07;;;;;;;29.63;6.88;;;24.00;39.70;;;;;;5096306;28;20525;-61
2021/04/24 04:50:38;;;;;;;19.60;7.07;;;23.90;39.80;;;;;;5094438;28;20118;-62
2021/04/24 04:53:06;;;;;;;18.58;6.18;;;23.90;40.10;;;;;;5098148;28;20163;-62
2021/04/24 04:55:33;;;;;;;28.42;9.13;;;23.80;40.20;;;;;;5097969;28;20466;-63
2021/04/24 04:57:59;;;;;;;24.38;7.90;;;23.80;40.90;;;;;;5092621;28;20088;-59
2021/04/24 05:00:26;;;;;;;29.10;5.95;;;23.80;40.60;;;;;;5093042;28;20085;-61
2021/04/24 05:02:53;;;;;;;30.98;6.25;;;23.80;40.50;;;;;;5090412;28;20076;-61
2021/04/24 05:05:20;;;;;;;35.05;6.93;;;23.70;40.60;;;;;;5092033;28;20096;-61
2021/04/24 05:07:49;;;;;;;43.67;6.00;;;23.70;41.20;;;;;;5095861;28;20096;-61
2021/04/24 05:10:17;;;;;;;28.23;5.50;;;23.60;41.60;;;;;;5095006;28;20068;-61
2021/04/24 05:12:44;;;;;;;30.45;5.15;;;23.50;41.60;;;;;;5093888;28;20552;-63
2021/04/24 05:15:12;;;;;;;32.95;6.68;;;23.50;42.20;;;;;;5090455;28;20241;-61
2021/04/24 05:17:39;;;;;;;35.90;8.60;;;23.40;42.10;;;;;;5089420;28;20533;-60
2021/04/24 05:20:07;;;;;;;31.63;7.45;;;23.40;42.50;;;;;;5091537;28;20534;-62
2021/04/24 05:22:33;;;;;;;21.20;6.47;;;23.40;42.50;;;;;;5091048;28;20065;-61
2021/04/24 05:25:00;;;;;;;23.08;6.88;;;23.40;42.60;;;;;;5092384;28;20076;-60
2021/04/24 05:27:27;;;;;;;29.55;9.15;;;23.30;42.70;;;;;;5087711;28;20151;-61
2021/04/24 05:29:54;;;;;;;38.20;9.55;;;23.20;43.10;;;;;;5095028;28;20064;-59
2021/04/24 05:32:20;;;;;;;30.30;8.35;;;23.20;43.50;;;;;;5093844;28;20443;-59
2021/04/24 05:34:48;;;;;;;37.67;8.07;;;23.10;43.70;;;;;;5090929;28;20668;-59
2021/04/24 05:37:15;;;;;;;37.67;8.63;;;23.10;44.00;;;;;;5088453;28;20103;-59
2021/04/24 05:39:43;;;;;;;32.50;8.98;;;23.10;44.40;;;;;;5089170;28;20069;-62
2021/04/24 05:42:13;;;;;;;27.70;8.52;;;23.00;44.70;;;;;;5092989;28;20090;-60
2021/04/24 05:44:40;;;;;;;44.20;10.43;;;22.90;45.00;;;;;;5074217;28;20075;-60
2021/04/24 05:47:07;;;;;;;28.98;7.57;;;22.80;46.00;;;;;;5091450;28;20120;-63
2021/04/24 05:49:34;;;;;;;29.90;6.70;;;22.80;45.60;;;;;;5091106;28;20076;-60
2021/04/24 05:52:04;;;;;;;34.30;6.10;;;22.80;46.30;;;;;;5094126;28;20084;-61
2021/04/24 05:54:30;;;;;;;27.73;5.25;;;22.70;46.50;;;;;;5097276;28;20532;-62
2021/04/24 05:56:57;;;;;;;21.70;5.38;;;22.70;47.10;;;;;;5100963;28;20076;-62
2021/04/24 05:59:23;;;;;;;24.15;4.57;;;22.60;47.50;;;;;;5096789;28;20557;-59
2021/04/24 06:01:50;;;;;;;29.05;4.82;;;22.60;48.10;;;;;;5089630;28;20073;-62
2021/04/24 06:04:16;;;;;;;18.55;4.57;;;22.50;48.50;;;;;;5090958;28;20077;-66
2021/04/24 06:06:43;;;;;;;27.98;4.68;;;22.40;49.00;;;;;;5074972;28;20103;-61
2021/04/24 06:09:09;;;;;;;27.33;5.05;;;22.40;49.20;;;;;;5089237;28;20091;-60
2021/04/24 06:11:36;;;;;;;25.58;4.07;;;22.30;49.80;;;;;;5091923;28;20075;-61
2021/04/24 06:14:03;;;;;;;22.35;3.90;;;22.30;50.40;;;;;;5092221;28;20073;-60
2021/04/24 06:16:31;;;;;;;21.50;4.07;;;22.30;51.10;;;;;;5086588;28;20069;-58
2021/04/24 06:18:58;;;;;;;20.65;4.00;;;22.10;51.90;;;;;;5088911;28;20218;-60
2021/04/24 06:21:24;;;;;;;20.23;4.07;;;22.10;52.50;;;;;;5089851;28;20541;-61
2021/04/24 06:23:51;;;;;;;18.02;3.35;;;22.10;53.40;;;;;;5091802;28;20103;-61
2021/04/24 06:26:18;;;;;;;16.30;3.92;;;22.00;54.30;;;;;;5091403;28;20092;-60
2021/04/24 06:28:45;;;;;;;27.85;3.75;;;22.00;54.60;;;;;;5091068;28;20192;-65
2021/04/24 06:31:11;;;;;;;28.40;3.47;;;21.90;55.00;;;;;;5075566;28;20456;-60
2021/04/24 06:33:38;;;;;;;25.50;3.55;;;21.90;55.50;;;;;;5094631;28;20646;-59
2021/04/24 06:36:05;;;;;;;16.52;3.22;;;21.90;55.90;;;;;;5095014;28;20073;-58
2021/04/24 06:38:32;;;;;;;16.38;3.20;;;21.80;56.10;;;;;;5095227;28;20072;-62
2021/04/24 06:40:58;;;;;;;21.67;3.20;;;21.80;57.00;;;;;;5078908;28;20087;-59
2021/04/24 06:43:26;;;;;;;23.83;3.50;;;21.80;57.40;;;;;;5061228;28;20406;-59
2021/04/24 06:45:53;;;;;;;15.30;3.80;;;21.80;58.50;;;;;;5077177;28;20185;-57
2021/04/24 06:48:19;;;;;;;23.42;3.70;;;21.60;58.90;;;;;;5096702;28;20083;-60
2021/04/24 06:50:46;;;;;;;23.95;3.78;;;21.60;59.60;;;;;;5096010;28;20084;-57
2021/04/24 06:53:12;;;;;;;14.07;3.58;;;21.60;60.00;;;;;;5095864;28;20844;-60
2021/04/24 06:55:39;;;;;;;16.90;3.75;;;21.50;61.10;;;;;;5093441;28;20073;-59
2021/04/24 06:58:05;;;;;;;21.90;4.50;;;21.40;61.80;;;;;;5092675;28;20068;-59
2021/04/24 07:00:32;;;;;;;17.27;4.10;;;21.40;62.60;;;;;;5091983;28;20521;-59
2021/04/24 07:02:58;;;;;;;14.52;4.53;;;21.30;63.40;;;;;;5091489;28;20087;-60
2021/04/24 07:05:25;;;;;;;17.10;4.15;;;21.30;64.20;;;;;;5096223;28;20084;-61
2021/04/24 07:07:52;;;;;;;13.25;4.05;;;21.20;65.20;;;;;;5095160;28;20487;-60
2021/04/24 07:10:19;;;;;;;26.48;4.30;;;21.20;65.90;;;;;;5093712;28;20121;-61
2021/04/24 07:12:46;;;;;;;26.27;6.18;;;21.20;66.80;;;;;;5090029;28;20075;-59
2021/04/24 07:15:13;;;;;;;29.60;5.93;;;21.20;67.70;;;;;;5093804;28;20108;-58
2021/04/24 07:17:40;;;;;;;25.27;5.63;;;21.10;68.30;;;;;;5093343;28;20071;-61
2021/04/24 07:20:08;;;;;;;23.02;5.28;;;21.20;68.70;;;;;;5093790;28;20440;-61
2021/04/24 07:22:35;;;;;;;23.95;3.97;;;21.20;69.20;;;;;;5094041;28;20094;-61
2021/04/24 07:25:02;;;;;;;20.98;4.07;;;21.20;70.30;;;;;;5088363;28;20076;-61
2021/04/24 07:27:28;;;;;;;21.90;4.10;;;21.30;70.50;;;;;;5093539;28;20127;-60
2021/04/24 07:29:55;;;;;;;20.45;4.57;;;21.20;69.90;;;;;;5092711;28;20095;-60
2021/04/24 07:32:22;;;;;;;18.90;3.78;;;21.20;70.50;;;;;;5093522;28;20132;-59
2021/04/24 07:34:48;;;;;;;20.65;4.25;;;21.10;70.90;;;;;;5090236;28;20536;-61
2021/04/24 07:37:15;;;;;;;25.88;4.35;;;21.10;71.90;;;;;;5095107;28;20418;-59
2021/04/24 07:39:41;;;;;;;22.50;3.80;;;21.00;72.50;;;;;;5093468;28;20084;-60
2021/04/24 07:42:08;;;;;;;16.02;3.78;;;20.90;73.40;;;;;;5095834;28;20086;-59
2021/04/24 07:44:37;;;;;;;17.58;4.03;;;20.90;74.70;;;;;;5093753;28;20076;-62
2021/04/24 07:47:05;;;;;;;24.40;4.53;;;20.80;76.90;;;;;;5088967;28;20104;-59
2021/04/24 07:49:31;;;;;;;18.75;4.80;;;20.70;77.30;;;;;;5090093;28;20080;-57
2021/04/24 07:51:58;;;;;;;20.25;4.95;;;20.70;78.40;;;;;;5091013;28;20090;-58
2021/04/24 07:54:25;;;;;;;13.88;4.10;;;20.70;79.30;;;;;;5093019;28;20491;-58
2021/04/24 07:56:52;;;;;;;16.90;4.13;;;20.70;80.50;;;;;;5092310;28;20099;-60
2021/04/24 07:59:18;;;;;;;24.33;5.72;;;20.70;81.00;;;;;;5096123;28;20098;-60
2021/04/24 08:01:45;;;;;;;25.63;4.43;;;20.70;81.00;;;;;;5091924;28;20440;-59
2021/04/24 08:04:12;;;;;;;21.27;4.22;;;20.70;81.70;;;;;;5092001;28;20073;-60
2021/04/24 08:06:39;;;;;;;18.05;4.60;;;20.70;82.80;;;;;;5090512;28;20474;-60
2021/04/24 08:09:06;;;;;;;20.10;4.00;;;20.70;83.00;;;;;;5094266;28;20159;-59
2021/04/24 08:11:34;;;;;;;23.02;4.75;;;20.70;83.80;;;;;;5099131;28;20080;-59
2021/04/24 08:14:00;;;;;;;14.25;4.25;;;20.70;84.90;;;;;;5096119;28;20517;-60
2021/04/24 08:16:27;;;;;;;25.52;4.32;;;20.70;85.70;;;;;;5095102;28;20468;-60
2021/04/24 08:18:53;;;;;;;26.02;4.85;;;20.60;86.60;;;;;;5095007;28;20720;-59
2021/04/24 08:21:20;;;;;;;25.38;4.43;;;20.60;86.70;;;;;;5094712;28;20110;-59
2021/04/24 08:23:47;;;;;;;20.33;4.25;;;20.50;86.70;;;;;;5090982;28;20076;-59
2021/04/24 08:26:18;;;;;;;21.98;4.57;;;20.50;86.90;;;;;;5094949;28;20084;-57
2021/04/24 08:28:44;;;;;;;15.93;3.80;;;20.40;87.70;;;;;;5095716;28;20536;-58
2021/04/24 08:31:11;;;;;;;20.67;4.30;;;20.40;88.80;;;;;;5092269;28;20521;-60
2021/04/24 08:33:37;;;;;;;30.88;4.43;;;20.40;89.50;;;;;;5093132;28;20457;-59
2021/04/24 08:36:04;;;;;;;19.88;4.63;;;20.40;90.40;;;;;;5091738;28;20088;-60
2021/04/24 08:38:31;;;;;;;18.08;5.50;;;20.40;90.70;;;;;;5091028;28;20214;-60
2021/04/24 08:40:57;;;;;;;20.92;5.30;;;20.40;91.10;;;;;;5095172;28;20085;-59
2021/04/24 08:43:25;;;;;;;22.65;5.88;;;20.30;91.60;;;;;;5091903;28;20081;-59
2021/04/24 08:45:55;;;;;;;21.48;5.20;;;20.30;91.60;;;;;;5091909;28;20614;-60
2021/04/24 08:48:22;;;;;;;12.65;3.67;;;20.30;91.60;;;;;;5095061;28;20084;-60
2021/04/24 08:50:48;;;;;;;19.70;4.30;;;20.20;91.50;;;;;;5093524;28;20480;-57
2021/04/24 08:53:18;;;;;;;24.02;4.47;;;20.20;91.90;;;;;;5093389;28;20151;-59
2021/04/24 08:55:45;;;;;;;15.68;4.75;;;20.20;91.80;;;;;;5094231;28;20077;-57
2021/04/24 08:58:11;;;;;;;18.38;5.07;;;20.10;92.50;;;;;;5092976;28;20594;-58
2021/04/24 09:00:41;;;;;;;22.15;5.07;;;20.20;92.50;;;;;;5090446;28;20440;-58
2021/04/24 09:03:16;;;;;;;25.67;4.50;;;20.20;92.40;;;;;;5088855;28;20154;-60
2021/04/24 09:05:43;;;;;;;21.23;4.32;;;20.20;93.20;;;;;;5090900;28;20108;-57
2021/04/24 09:08:10;;;;;;;9.57;3.38;;;20.10;93.80;;;;;;5090626;28;20102;-59
2021/04/24 09:10:42;;;;;;;22.33;4.25;;;20.10;95.00;;;;;;5090054;28;20076;-56
2021/04/24 09:13:10;;;;;;;16.33;4.13;;;20.00;96.10;;;;;;5089879;28;20080;-58
2021/04/24 09:15:36;;;;;;;18.52;4.28;;;20.00;96.70;;;;;;5090008;28;20530;-60
2021/04/24 09:18:06;;;;;;;14.43;4.07;;;20.00;97.20;;;;;;5091265;28;20073;-60
2021/04/24 09:20:52;;;;;;;14.57;3.75;;;20.00;97.70;;;;;;5089721;28;20080;-59
2021/04/24 09:23:32;;;;;;;12.47;3.87;;;19.90;98.40;;;;;;5092121;28;20060;-61
2021/04/24 09:26:13;;;;;;;16.27;4.00;;;19.80;99.10;;;;;;5092559;28;20065;-60
2021/04/24 09:28:45;;;;;;;14.65;3.70;;;19.80;99.70;;;;;;5093521;28;20072;-59
2021/04/24 09:31:14;;;;;;;16.25;4.50;;;19.90;99.70;;;;;;5074743;28;20084;-59
2021/04/24 09:33:41;;;;;;;18.33;3.90;;;19.80;99.60;;;;;;5087786;28;20084;-60
2021/04/24 09:36:09;;;;;;;18.55;4.00;;;19.80;99.40;;;;;;5087440;28;20080;-60
2021/04/24 09:38:38;;;;;;;15.60;4.35;;;19.70;99.70;;;;;;5092732;28;20163;-59
2021/04/24 09:41:06;;;;;;;14.48;4.10;;;19.70;99.70;;;;;;5089946;28;20093;-59
2021/04/24 09:44:00;;;;;;;16.63;4.25;;;19.70;99.80;;;;;;5092911;28;20080;-59
2021/04/24 09:46:45;;;;;;;12.02;3.65;;;19.70;99.90;;;;;;5088416;28;20119;-60
2021/04/24 09:49:33;;;;;;;20.10;4.00;;;19.70;99.50;;;;;;5093232;28;20072;-61
2021/04/24 09:52:04;;;;;;;15.35;3.97;;;19.70;99.00;;;;;;5095886;28;20159;-61
2021/04/24 09:54:46;;;;;;;24.30;3.83;;;19.60;99.70;;;;;;5091101;28;20104;-60
2021/04/24 09:57:22;;;;;;;24.58;4.03;;;19.60;99.80;;;;;;5091542;28;20073;-60
2021/04/24 09:59:52;;;;;;;17.92;3.80;;;19.70;99.80;;;;;;5076989;28;20638;-58
2021/04/24 10:02:30;;;;;;;18.13;3.92;;;19.70;99.30;;;;;;5075854;28;20085;-60
2021/04/24 10:05:16;;;;;;;17.35;3.83;;;19.60;99.60;;;;;;5090644;28;20076;-61
2021/04/24 10:07:48;;;;;;;21.38;4.38;;;19.60;99.60;;;;;;5091417;28;20093;-61
2021/04/24 10:10:17;;;;;;;19.92;4.70;;;19.60;99.40;;;;;;5096564;28;20076;-59
2021/04/24 10:13:00;;;;;;;18.17;3.42;;;19.50;99.40;;;;;;5094569;28;20155;-59
2021/04/24 10:15:47;;;;;;;18.55;4.00;;;19.50;99.00;;;;;;5092129;28;20475;-59
2021/04/24 10:18:15;;;;;;;19.05;3.70;;;19.50;98.40;;;;;;5095231;28;20562;-57
2021/04/24 10:20:45;;;;;;;18.55;3.78;;;19.40;98.70;;;;;;5096839;28;20080;-55
2021/04/24 10:23:13;;;;;;;14.43;3.78;;;19.40;98.80;;;;;;5093035;28;20548;-57
2021/04/24 10:25:44;;;;;;;24.75;4.55;;;19.40;98.40;;;;;;5095664;28;20147;-59
2021/04/24 10:28:10;;;;;;;15.25;3.70;;;19.40;98.10;;;;;;5094852;28;20153;-58
2021/04/24 10:30:38;;;;;;;16.83;4.63;;;19.30;98.40;;;;;;5097697;28;20072;-58
2021/04/24 10:33:06;;;;;;;15.50;4.55;;;19.30;98.70;;;;;;5092170;28;20069;-58
2021/04/24 10:35:32;;;;;;;18.23;4.50;;;19.30;99.00;;;;;;5098603;28;20069;-60
2021/04/24 10:38:02;;;;;;;15.00;3.53;;;19.30;98.40;;;;;;5092094;28;20118;-59
2021/04/24 10:40:29;;;;;;;15.40;3.63;;;19.30;98.30;;;;;;5091735;28;20228;-57
2021/04/24 10:42:58;;;;;;;14.55;3.38;;;19.20;98.40;;;;;;5097293;28;20133;-57
2021/04/24 10:45:29;;;;;;;14.68;3.97;;;19.10;98.60;;;;;;5095929;28;20495;-59
2021/04/24 10:47:57;;;;;;;18.80;4.68;;;19.10;98.50;;;;;;5095695;28;20130;-59
2021/04/24 10:50:40;;;;;;;12.35;3.53;;;19.00;98.60;;;;;;5092744;28;20073;-58
2021/04/24 10:53:39;;;;;;;19.80;4.05;;;19.00;98.20;;;;;;5093464;28;20100;-59
2021/04/24 10:56:05;;;;;;;16.83;4.22;;;19.10;98.00;;;;;;5043017;28;20091;-60
2021/04/24 10:58:34;;;;;;;;;;;19.10;97.70;;;;;;5097006;28;20083;-59
2021/04/24 11:01:07;;;;;;;15.70;4.75;;;19.10;97.40;;;;;;5092750;28;20000;-61
2021/04/24 11:03:41;;;;;;;16.30;3.92;;;19.00;97.40;;;;;;5081541;28;20072;-56
2021/04/24 11:06:16;;;;;;;16.95;4.50;;;18.90;97.50;;;;;;5092717;28;20072;-58
2021/04/24 11:08:45;;;;;;;15.95;3.80;;;19.00;97.30;;;;;;5096193;28;20080;-59
2021/04/24 11:11:17;;;;;;;21.20;4.50;;;19.00;96.80;;;;;;5092321;28;20069;-59
2021/04/24 11:13:54;;;;;;;15.48;4.22;;;18.90;96.80;;;;;;5095407;28;20517;-59
2021/04/24 11:16:21;;;;;;;23.17;3.85;;;18.90;96.50;;;;;;5094413;28;20081;-59
2021/04/24 11:18:51;;;;;;;19.92;4.45;;;18.90;96.90;;;;;;5091783;28;20572;-58
2021/04/24 11:21:17;;;;;;;18.73;3.65;;;18.90;96.50;;;;;;5091962;28;20521;-58
2021/04/24 11:23:44;;;;;;;;;;;18.90;96.40;;;;;;5093674;28;20122;-59
2021/04/24 11:26:12;;;;;;;19.27;4.82;;;18.80;96.60;;;;;;5096531;28;20038;-58
2021/04/24 11:29:12;;;;;;;17.58;3.80;;;18.90;96.80;;;;;;5095413;28;20080;-59
2021/04/24 11:31:55;;;;;;;17.45;4.07;;;18.80;96.50;;;;;;5078666;28;20091;-59
2021/04/24 11:34:36;;;;;;;14.43;3.80;;;18.80;96.40;;;;;;5093059;28;20094;-60
2021/04/24 11:37:15;;;;;;;18.83;4.20;;;18.70;96.50;;;;;;5091044;28;20076;-60
2021/04/24 11:40:06;;;;;;;18.00;6.13;;;18.70;96.70;;;;;;5091665;28;20072;-60
2021/04/24 11:42:35;;;;;;;21.35;9.70;;;18.70;96.70;;;;;;5098464;28;20081;-59
2021/04/24 11:45:02;;;;;;;29.80;10.63;;;18.70;96.40;;;;;;5095873;28;20102;-60
2021/04/24 11:47:44;;;;;;;24.42;8.70;;;18.70;96.40;;;;;;5094400;28;20626;-59
2021/04/24 11:50:20;;;;;;;21.75;6.75;;;18.70;96.20;;;;;;5091873;28;20509;-58
2021/04/24 11:52:55;;;;;;;29.08;7.18;;;18.60;96.40;;;;;;5090521;28;20076;-58
2021/04/24 11:55:22;;;;;;;19.50;6.43;;;18.60;96.30;;;;;;5089564;28;20132;-59
2021/04/24 11:57:49;;;;;;;24.30;7.38;;;18.50;96.10;;;;;;5091461;28;20077;-58
2021/04/24 12:00:28;;;;;;;24.52;6.55;;;18.50;95.90;;;;;;5091365;28;20096;-56
2021/04/24 12:02:54;;;;;;;29.92;7.88;;;18.50;96.20;;;;;;5091325;28;20079;-60
2021/04/24 12:05:21;;;;;;;;;;;18.40;96.00;;;;;;5093504;28;20445;-59
2021/04/24 12:07:48;;;;;;;29.85;8.75;;;18.40;95.90;;;;;;5091125;28;19984;-59
2021/04/24 12:10:16;;;;;;;32.13;9.63;;;18.40;96.10;;;;;;5097448;28;20117;-58
2021/04/24 12:12:49;;;;;;;21.48;9.00;;;18.40;96.00;;;;;;5091974;28;20076;-56
2021/04/24 12:15:25;;;;;;;31.30;11.18;;;18.40;95.70;;;;;;5090884;28;20080;-57
2021/04/24 12:17:52;;;;;;;34.45;11.93;;;18.30;96.40;;;;;;5093687;28;20080;-57
2021/04/24 12:20:29;;;;;;;37.72;11.52;;;18.20;96.30;;;;;;5093832;28;20116;-59
2021/04/24 12:22:56;;;;;;;;;;;18.10;96.10;;;;;;5089787;28;20067;-59
2021/04/24 12:25:25;;;;;;;37.10;12.80;;;18.10;96.40;;;;;;5090201;28;20423;-60
2021/04/24 12:27:56;;;;;;;35.75;12.32;;;18.10;96.60;;;;;;5087505;28;20565;-60
2021/04/24 12:30:27;;;;;;;38.83;13.60;;;18.10;95.80;;;;;;5087407;28;20083;-60
2021/04/24 12:33:06;;;;;;;34.45;14.30;;;18.10;96.00;;;;;;5095315;28;20532;-60
2021/04/24 12:35:35;;;;;;;37.25;12.32;;;18.10;96.00;;;;;;5092687;28;20069;-60
2021/04/24 12:38:05;;;;;;;39.72;13.43;;;18.20;95.90;;;;;;5093141;28;20069;-60
2021/04/24 12:40:40;;;;;;;36.70;13.95;;;18.10;95.50;;;;;;5090771;28;20172;-60
2021/04/24 12:43:15;;;;;;;37.80;12.55;;;18.10;96.10;;;;;;5094111;28;20505;-60
2021/04/24 12:45:44;;;;;;;41.40;14.02;;;18.10;96.10;;;;;;5092450;28;20075;-60
2021/04/24 12:48:16;;;;;;;40.97;12.95;;;18.10;96.20;;;;;;5094708;28;20136;-60